Time;durP1;ratioP1;P1;durP2;ratioP2;P2;SDS_P1;SDS_P2;PMS_P1;PMS_P2;Temp;Humidity;BMP_temperature;BMP_pressure;BME280_temperature;BME280_humidity;BME280_pressure;Samples;Min_cycle;Max_cycle;Signal;HPM_P1;HPM_P2
2022/04/22 00:03:09;;;;;;;69.73;41.50;;;8.10;99.90;;;;;;10265841;28;20674;-77
2022/04/22 00:08:12;;;;;;;70.80;40.83;;;8.00;99.90;;;;;;10274580;28;20233;-78
2022/04/22 00:13:14;;;;;;;73.47;44.43;;;8.00;99.90;;;;;;10270384;28;20675;-77
2022/04/22 00:18:16;;;;;;;70.90;42.30;;;8.10;99.90;;;;;;10273449;28;20683;-77
2022/04/22 00:23:19;;;;;;;68.90;39.97;;;8.10;99.90;;;;;;10247520;28;20749;-77
2022/04/22 00:28:22;;;;;;;66.73;40.27;;;8.00;99.90;;;;;;10252193;28;20242;-78
2022/04/22 00:33:24;;;;;;;66.90;41.67;;;8.00;99.90;;;;;;10262923;28;20617;-77
2022/04/22 00:38:27;;;;;;;71.63;42.00;;;7.90;99.90;;;;;;10268147;28;20273;-77
2022/04/22 00:43:44;;;;;;;73.90;42.10;;;7.90;99.90;;;;;;10244253;28;20313;-77
2022/04/22 00:48:47;;;;;;;78.30;39.87;;;8.00;99.90;;;;;;10262156;28;20305;-77
2022/04/22 00:53:51;;;;;;;68.87;42.77;;;8.00;99.90;;;;;;10280172;28;20258;-77
2022/04/22 00:58:57;;;;;;;71.63;43.73;;;7.90;99.90;;;;;;10263159;28;20241;-77
2022/04/22 01:14:45;;;;;;;60.73;36.57;;;7.90;99.90;;;;;;10281421;28;20653;-77
2022/04/22 01:19:48;;;;;;;58.13;35.97;;;8.10;99.90;;;;;;10280227;28;20234;-77
2022/04/22 01:24:59;;;;;;;53.03;33.50;;;7.90;99.90;;;;;;10252385;28;20265;-77
2022/04/22 01:30:06;;;;;;;56.03;34.93;;;7.80;99.90;;;;;;10224104;28;20745;-77
2022/04/22 01:35:08;;;;;;;52.87;32.80;;;7.80;99.90;;;;;;10256803;28;20273;-77
2022/04/22 01:40:12;;;;;;;51.13;30.60;;;7.90;99.90;;;;;;10249026;28;20277;-77
2022/04/22 01:45:14;;;;;;;45.30;28.33;;;8.00;99.90;;;;;;10274041;28;20651;-77
2022/04/22 01:50:17;;;;;;;41.27;25.70;;;8.10;99.90;;;;;;10255392;28;20672;-77
2022/04/22 01:55:20;;;;;;;35.97;23.63;;;8.10;99.90;;;;;;10261250;28;20759;-77
2022/04/22 02:00:22;;;;;;;37.87;23.30;;;8.10;99.90;;;;;;10249119;28;20261;-77
2022/04/22 02:05:24;;;;;;;30.07;20.40;;;8.10;99.90;;;;;;10297940;28;20272;-77
2022/04/22 02:10:27;;;;;;;27.33;19.80;;;8.20;99.90;;;;;;10281626;28;20242;-77
2022/04/22 02:15:30;;;;;;;36.03;22.80;;;8.20;99.90;;;;;;10239972;28;20659;-77
2022/04/22 02:20:32;;;;;;;33.83;23.53;;;8.20;99.90;;;;;;10249011;28;20242;-77
2022/04/22 02:25:35;;;;;;;37.53;23.20;;;8.10;99.90;;;;;;10267327;28;20261;-77
2022/04/22 02:30:37;;;;;;;37.57;24.33;;;8.20;99.90;;;;;;10277760;28;20245;-77
2022/04/22 02:35:40;;;;;;;40.33;24.23;;;8.10;99.90;;;;;;10263242;28;20238;-77
2022/04/22 02:46:03;;;;;;;39.63;26.43;;;8.10;99.90;;;;;;10264035;28;20324;-77
2022/04/22 02:51:06;;;;;;;45.83;28.00;;;8.10;99.90;;;;;;10269558;28;20292;-77
2022/04/22 02:56:09;;;;;;;43.90;30.80;;;8.10;99.90;;;;;;10267306;28;20717;-77
2022/04/22 03:01:14;;;;;;;52.63;32.70;;;8.10;99.90;;;;;;10258050;28;20762;-77
2022/04/22 03:06:17;;;;;;;51.53;33.03;;;8.20;99.90;;;;;;10243703;28;20285;-77
2022/04/22 03:11:21;;;;;;;52.30;34.73;;;8.30;99.90;;;;;;10255394;28;20241;-77
2022/04/22 03:16:25;;;;;;;55.43;35.13;;;8.40;99.90;;;;;;10275308;28;20304;-77
2022/04/22 03:21:28;;;;;;;52.23;34.17;;;8.40;99.90;;;;;;10264690;28;20249;-77
2022/04/22 03:26:30;;;;;;;52.00;35.47;;;8.50;99.90;;;;;;10282579;28;20647;-77
2022/04/22 03:31:33;;;;;;;57.17;36.77;;;8.50;99.90;;;;;;10288605;28;20249;-77
2022/04/22 03:36:35;;;;;;;59.23;37.33;;;8.50;99.90;;;;;;10286924;28;20613;-77
2022/04/22 03:41:39;;;;;;;57.17;37.20;;;8.50;99.90;;;;;;10255465;28;20257;-77
2022/04/22 03:46:41;;;;;;;65.23;39.87;;;8.50;99.90;;;;;;10269066;28;20422;-77
2022/04/22 03:51:44;;;;;;;54.40;38.90;;;8.50;99.90;;;;;;10280690;28;20245;-77
2022/04/22 04:02:07;;;;;;;63.97;39.70;;;8.50;99.90;;;;;;10254988;28;20266;-77
2022/04/22 04:07:10;;;;;;;65.47;40.63;;;8.40;99.90;;;;;;10264917;28;20899;-77
2022/04/22 04:17:38;;;;;;;58.30;38.63;;;8.60;99.90;;;;;;10285480;28;20268;-77
2022/04/22 04:28:03;;;;;;;73.63;45.07;;;8.80;99.90;;;;;;10292523;28;20301;-77
2022/04/22 04:33:10;;;;;;;74.77;44.13;;;8.80;99.90;;;;;;10289540;28;20628;-77
2022/04/22 04:38:14;;;;;;;77.20;47.27;;;8.90;99.90;;;;;;10260581;28;20632;-77
2022/04/22 04:43:17;;;;;;;80.43;46.93;;;8.90;99.90;;;;;;10283698;28;20330;-77
2022/04/22 04:48:21;;;;;;;80.67;48.57;;;9.10;99.90;;;;;;10289807;28;20299;-76
2022/04/22 04:53:23;;;;;;;82.20;51.83;;;9.20;99.90;;;;;;10267686;28;20238;-77
2022/04/22 04:58:26;;;;;;;78.97;49.47;;;9.30;99.90;;;;;;10260810;28;20705;-76
2022/04/22 05:03:28;;;;;;;34.00;22.27;;;9.20;99.90;;;;;;10281923;28;20300;-76
2022/04/22 05:08:31;;;;;;;61.63;37.37;;;10.40;99.90;;;;;;10240621;28;20267;-77
2022/04/22 05:13:33;;;;;;;31.70;22.10;;;11.40;99.90;;;;;;10254707;28;20661;-77
2022/04/22 05:18:36;;;;;;;48.00;32.00;;;12.60;99.90;;;;;;10253738;28;20281;-77
2022/04/22 05:23:39;;;;;;;28.30;19.13;;;12.90;99.90;;;;;;10277057;28;20263;-77
2022/04/22 05:28:42;;;;;;;43.93;31.00;;;13.00;99.90;;;;;;10271622;28;20702;-77
2022/04/22 05:33:44;;;;;;;27.53;19.23;;;13.90;99.90;;;;;;10288717;28;20354;-77
2022/04/22 05:38:47;;;;;;;24.03;17.23;;;13.90;99.90;;;;;;10289213;28;20276;-77
2022/04/22 05:43:49;;;;;;;48.50;30.57;;;14.20;99.90;;;;;;10288587;28;20269;-77
2022/04/22 05:48:52;;;;;;;22.17;15.97;;;14.40;99.90;;;;;;10271322;28;20554;-77
2022/04/22 05:53:54;;;;;;;25.60;16.73;;;14.70;99.90;;;;;;10288158;28;20237;-77
2022/04/22 05:58:57;;;;;;;21.90;16.23;;;15.20;99.90;;;;;;10286866;28;20241;-78
2022/04/22 06:03:59;;;;;;;19.97;14.60;;;15.10;99.90;;;;;;10254302;28;20925;-77
2022/04/22 06:14:23;;;;;;;20.73;14.57;;;15.30;99.90;;;;;;10264628;28;20241;-90
2022/04/22 06:19:26;;;;;;;23.17;15.77;;;15.60;99.90;;;;;;10270803;28;20311;-90
2022/04/22 06:24:29;;;;;;;28.87;19.60;;;15.60;99.90;;;;;;10252589;23;20294;-79
2022/04/22 06:29:31;;;;;;;29.93;19.20;;;15.00;98.90;;;;;;10230068;28;20234;-78
2022/04/22 06:34:34;;;;;;;26.40;17.53;;;15.40;99.20;;;;;;10246082;28;20246;-78
2022/04/22 06:50:21;;;;;;;18.33;12.50;;;16.00;97.50;;;;;;10236331;29;20299;-79
2022/04/22 06:55:24;;;;;;;19.10;14.43;;;16.10;97.80;;;;;;10248016;28;20705;-78
2022/04/22 07:00:27;;;;;;;21.80;13.97;;;16.70;95.90;;;;;;10246182;28;20306;-78
2022/04/22 07:05:30;;;;;;;19.33;15.13;;;16.40;95.20;;;;;;10251375;28;20265;-78
2022/04/22 07:10:36;;;;;;;36.40;22.90;;;16.30;95.90;;;;;;10252826;28;20239;-80
2022/04/22 07:15:39;;;;;;;19.97;13.20;;;15.70;90.20;;;;;;10219348;28;20242;-79
2022/04/22 07:20:42;;;;;;;16.40;11.37;;;14.30;95.40;;;;;;10234055;28;20262;-79
2022/04/22 07:25:46;;;;;;;17.97;10.40;;;15.40;98.30;;;;;;10212768;29;20339;-79
2022/04/22 07:30:50;;;;;;;13.97;10.97;;;15.80;93.50;;;;;;10211473;29;20740;-79
2022/04/22 07:35:53;;;;;;;15.00;10.50;;;15.70;93.10;;;;;;10212341;29;20301;-79
2022/04/22 07:40:55;;;;;;;13.83;10.43;;;15.90;92.50;;;;;;10212942;29;20286;-79
2022/04/22 07:51:20;;;;;;;20.20;11.13;;;15.50;92.00;;;;;;10253097;28;20289;-79
2022/04/22 07:56:24;;;;;;;18.47;11.10;;;13.90;94.00;;;;;;10281345;28;20241;-80
2022/04/22 08:01:26;;;;;;;21.37;10.37;;;13.10;99.90;;;;;;10279399;28;20245;-81
2022/04/22 08:06:29;;;;;;;19.83;9.97;;;13.40;99.90;;;;;;10258605;28;20265;-80
2022/04/22 08:11:31;;;;;;;15.43;10.77;;;13.90;99.90;;;;;;10252903;28;20198;-79
2022/04/22 08:16:34;;;;;;;15.87;10.20;;;13.60;99.90;;;;;;10250037;28;20277;-79
2022/04/22 08:21:36;;;;;;;17.80;11.73;;;14.20;99.90;;;;;;10254215;28;20741;-80
2022/04/22 08:26:39;;;;;;;20.73;10.73;;;13.70;99.20;;;;;;10266341;23;20321;-80
2022/04/22 08:31:42;;;;;;;15.93;11.37;;;15.20;99.90;;;;;;10238412;29;20305;-80
2022/04/22 08:36:47;;;;;;;15.50;11.57;;;14.40;95.10;;;;;;10249864;29;20292;-81
2022/04/22 08:41:51;;;;;;;12.67;9.40;;;14.50;99.90;;;;;;10226976;28;20241;-80
2022/04/22 08:52:16;;;;;;;14.00;9.30;;;15.30;99.90;;;;;;10250116;28;20278;-81
2022/04/22 08:57:20;;;;;;;13.20;10.63;;;16.30;99.90;;;;;;10276375;28;20363;-81
2022/04/22 09:02:23;;;;;;;13.93;11.80;;;15.60;97.50;;;;;;10248411;28;20242;-81
2022/04/22 09:07:27;;;;;;;15.33;10.87;;;14.00;99.90;;;;;;10248645;28;20261;-81
2022/04/22 09:12:31;;;;;;;13.43;10.93;;;15.80;97.30;;;;;;10228593;29;20294;-81
2022/04/22 09:17:35;;;;;;;15.70;11.70;;;15.50;94.10;;;;;;10221906;29;20241;-81
2022/04/22 09:22:38;;;;;;;10.37;8.20;;;14.60;96.60;;;;;;10227203;29;20257;-81
2022/04/22 09:27:42;;;;;;;9.43;7.57;;;16.30;99.90;;;;;;10195548;29;20756;-80
2022/04/22 09:32:45;;;;;;;9.33;6.87;;;14.60;99.90;;;;;;10223369;29;20239;-91
2022/04/22 09:43:12;;;;;;;7.57;6.33;;;16.80;92.60;;;;;;10209557;29;20290;-91
2022/04/22 09:48:18;;;;;;;6.13;5.57;;;16.80;92.50;;;;;;10192309;29;20266;-92
2022/04/22 09:53:34;;;;;;;8.37;5.67;;;16.10;93.90;;;;;;10192024;29;20297;-91
2022/04/22 09:58:37;;;;;;;9.60;5.53;;;16.20;92.00;;;;;;10191811;29;20241;-91
2022/04/22 10:03:39;;;;;;;7.27;5.87;;;16.40;91.60;;;;;;10191063;29;20322;-90
2022/04/22 10:08:45;;;;;;;6.93;5.87;;;16.40;93.70;;;;;;10191934;29;20206;-91
2022/04/22 10:13:49;;;;;;;5.93;5.33;;;16.50;91.80;;;;;;10254709;23;20270;-80
2022/04/22 10:18:52;;;;;;;7.90;6.17;;;16.30;92.40;;;;;;10248180;29;20290;-80
2022/04/22 10:23:58;;;;;;;7.03;5.57;;;16.30;94.70;;;;;;10246220;29;20255;-79
2022/04/22 10:29:03;;;;;;;6.70;4.77;;;16.50;94.50;;;;;;10230289;29;20282;-80
2022/04/22 10:34:07;;;;;;;6.60;4.80;;;16.40;91.80;;;;;;10247860;29;20655;-80
2022/04/22 10:39:09;;;;;;;4.63;4.23;;;16.40;92.80;;;;;;10247007;29;20648;-79
2022/04/22 10:49:38;;;;;;;5.50;4.90;;;16.10;93.40;;;;;;10247194;29;20269;-80
2022/04/22 10:54:53;;;;;;;4.77;3.43;;;16.20;95.20;;;;;;10247121;29;20292;-80
2022/04/22 11:00:09;;;;;;;5.10;4.60;;;16.20;93.40;;;;;;10245276;29;20304;-80
2022/04/22 11:05:20;;;;;;;6.67;4.50;;;16.10;89.40;;;;;;10229560;29;20265;-80
2022/04/22 11:10:24;;;;;;;4.90;4.40;;;16.30;90.60;;;;;;10245063;29;20294;-80
2022/04/22 11:15:50;;;;;;;3.80;3.50;;;16.50;93.10;;;;;;10245386;29;20287;-80
2022/04/22 11:21:02;;;;;;;4.53;3.93;;;16.50;92.40;;;;;;10246653;29;20242;-80
2022/04/22 11:26:05;;;;;;;4.83;4.33;;;16.90;91.20;;;;;;10247334;29;20638;-80
2022/04/22 11:31:10;;;;;;;4.70;4.30;;;16.60;93.10;;;;;;10246222;29;20237;-80
2022/04/22 11:36:13;;;;;;;5.60;4.30;;;16.40;92.20;;;;;;10245339;29;20233;-80
2022/04/22 11:41:16;;;;;;;3.67;3.37;;;16.40;93.10;;;;;;10246641;29;20284;-80
2022/04/22 11:46:19;;;;;;;5.43;4.13;;;16.30;91.00;;;;;;10246135;29;20318;-80
2022/04/22 11:51:22;;;;;;;4.63;4.23;;;16.30;93.00;;;;;;10249375;28;20230;-80
2022/04/22 11:56:24;;;;;;;4.00;3.60;;;16.50;91.80;;;;;;10253284;29;20297;-80
2022/04/22 12:06:56;;;;;;;7.57;4.40;;;16.50;86.10;;;;;;10235222;29;20664;-80
2022/04/22 12:12:00;;;;;;;5.73;4.53;;;16.60;92.40;;;;;;10250877;29;20750;-80
2022/04/22 12:17:04;;;;;;;4.37;3.97;;;16.50;90.30;;;;;;10234713;29;20269;-80
2022/04/22 12:22:07;;;;;;;4.10;3.70;;;16.40;92.10;;;;;;10235513;29;20703;-80
2022/04/22 12:27:29;;;;;;;6.70;3.80;;;16.60;91.30;;;;;;10252643;29;20255;-80
2022/04/22 12:32:32;;;;;;;4.67;4.10;;;16.40;82.60;;;;;;10231830;28;20677;-80
2022/04/22 12:37:34;;;;;;;5.60;4.10;;;16.20;90.50;;;;;;10291177;28;20617;-80
2022/04/22 12:42:39;;;;;;;9.40;4.87;;;16.20;91.30;;;;;;10276505;28;20695;-79
2022/04/22 12:53:06;;;;;;;6.10;4.03;;;18.40;80.30;;;;;;10271119;28;20235;-80
2022/04/22 12:58:11;;;;;;;6.93;3.73;;;18.50;76.70;;;;;;10286801;28;20683;-80
2022/04/22 13:03:13;;;;;;;7.80;5.10;;;18.10;81.60;;;;;;10238988;23;20272;-78
2022/04/22 13:08:17;;;;;;;4.20;3.63;;;;;;;;;;10233338;29;20718;-77
2022/04/22 13:13:20;;;;;;;5.97;5.43;;;18.80;79.00;;;;;;10248867;29;20359;-77
2022/04/22 13:18:22;;;;;;;6.73;3.37;;;18.60;77.00;;;;;;10247912;28;20697;-77
2022/04/22 13:23:25;;;;;;;3.27;2.97;;;19.10;79.20;;;;;;10248796;29;20240;-77
2022/04/22 13:28:28;;;;;;;4.70;3.70;;;19.30;79.70;;;;;;10248042;29;20265;-77
2022/04/22 13:33:32;;;;;;;4.93;4.10;;;19.00;78.10;;;;;;10244653;29;20626;-78
2022/04/22 13:38:36;;;;;;;7.73;6.93;;;19.50;78.70;;;;;;10247960;29;20285;-92
2022/04/22 13:43:38;;;;;;;7.10;6.23;;;19.00;68.10;;;;;;10248230;29;20245;-93
2022/04/22 13:54:00;;;;;;;7.10;5.80;;;18.20;71.00;;;;;;10207512;29;20281;-80
2022/04/22 13:59:03;;;;;;;7.17;5.80;;;17.90;66.80;;;;;;10208028;29;20207;-80
2022/04/22 14:04:06;;;;;;;5.57;5.07;;;17.70;68.30;;;;;;10191835;29;20250;-80
2022/04/22 14:09:08;;;;;;;5.27;4.83;;;17.70;69.60;;;;;;10208736;29;20237;-80
2022/04/22 14:14:11;;;;;;;6.20;5.10;;;17.60;69.50;;;;;;10207927;29;20286;-79
2022/04/22 14:19:14;;;;;;;7.10;4.63;;;17.50;70.80;;;;;;10208171;29;20249;-79
2022/04/22 14:24:16;;;;;;;7.23;4.43;;;17.30;72.70;;;;;;10208041;29;20702;-79
2022/04/22 14:29:19;;;;;;;6.53;5.10;;;17.60;70.50;;;;;;10209001;29;20240;-79
2022/04/22 14:34:21;;;;;;;4.03;3.73;;;17.50;74.30;;;;;;10207355;29;20254;-79
2022/04/22 14:39:24;;;;;;;4.87;4.37;;;17.50;74.50;;;;;;10191242;29;20241;-79
2022/04/22 14:44:27;;;;;;;4.90;4.50;;;17.50;74.60;;;;;;10190059;29;20715;-79
2022/04/22 14:49:29;;;;;;;4.57;4.27;;;17.50;75.70;;;;;;10203358;29;20265;-79
2022/04/22 14:54:33;;;;;;;4.80;4.40;;;17.40;75.40;;;;;;10168412;29;20317;-80
2022/04/22 14:59:36;;;;;;;5.17;4.77;;;17.50;75.60;;;;;;10167449;29;20242;-79
2022/04/22 15:04:39;;;;;;;4.30;3.83;;;17.50;74.40;;;;;;10167822;29;20263;-79
2022/04/22 15:09:42;;;;;;;6.37;4.63;;;17.60;71.30;;;;;;10166947;29;20232;-79
2022/04/22 15:14:44;;;;;;;4.37;3.97;;;17.50;74.60;;;;;;10168740;29;20307;-79
2022/04/22 15:25:08;;;;;;;6.23;5.63;;;17.10;73.60;;;;;;10169572;29;20632;-79
2022/04/22 15:30:11;;;;;;;12.87;5.37;;;17.30;67.00;;;;;;10174797;29;20240;-79
2022/04/22 15:35:14;;;;;;;6.83;4.83;;;17.40;70.80;;;;;;10152152;29;20249;-79
2022/04/22 15:40:16;;;;;;;5.87;5.27;;;17.70;67.00;;;;;;10240185;23;20272;-93
2022/04/22 15:45:19;;;;;;;6.40;5.80;;;17.80;65.00;;;;;;10254490;29;20269;-94
2022/04/22 15:50:21;;;;;;;33.53;8.63;;;16.90;63.50;;;;;;10250127;29;20215;-92
2022/04/22 15:55:24;;;;;;;53.00;12.73;;;16.70;64.10;;;;;;10234603;29;20273;-87
2022/04/22 16:00:27;;;;;;;27.77;11.03;;;17.40;65.00;;;;;;10237763;29;20237;-87
2022/04/22 16:05:30;;;;;;;22.37;8.13;;;17.50;64.20;;;;;;10251388;29;20260;-86
2022/04/22 16:10:32;;;;;;;36.57;8.57;;;17.90;60.20;;;;;;10251639;29;20265;-87
2022/04/22 16:15:35;;;;;;;50.00;8.17;;;18.20;63.70;;;;;;10227363;29;21052;-87
2022/04/22 16:20:40;;;;;;;51.20;9.40;;;18.30;66.00;;;;;;10229465;29;20762;-84
2022/04/22 16:25:42;;;;;;;36.50;8.23;;;18.40;66.40;;;;;;9884017;29;10000070;-84
2022/04/22 16:30:45;;;;;;;16.20;10.17;;;18.30;64.30;;;;;;10219241;29;20489;-85
2022/04/22 16:35:48;;;;;;;20.30;8.43;;;17.30;64.60;;;;;;10246397;28;20757;-85
2022/04/22 16:40:50;;;;;;;22.20;6.47;;;17.90;66.50;;;;;;10279717;28;20265;-86
2022/04/22 16:45:53;;;;;;;26.00;8.23;;;18.50;68.40;;;;;;10287729;28;20272;-87
2022/04/22 16:50:56;;;;;;;29.53;7.80;;;18.40;67.80;;;;;;10287160;28;20308;-86
2022/04/22 16:56:00;;;;;;;20.43;6.47;;;17.90;69.20;;;;;;10232904;29;20248;-86
2022/04/22 17:01:03;;;;;;;21.17;10.00;;;17.50;71.00;;;;;;10256963;28;20248;-86
2022/04/22 17:06:06;;;;;;;11.57;9.13;;;17.30;70.10;;;;;;10264682;28;20315;-85
2022/04/22 17:11:09;;;;;;;11.33;8.30;;;17.00;65.60;;;;;;10284141;28;20233;-85
2022/04/22 17:27:07;;;;;;;12.57;10.73;;;17.20;71.20;;;;;;10194357;29;20262;-85
2022/04/22 17:32:10;;;;;;;16.73;11.23;;;15.70;65.40;;;;;;10201343;29;20238;-85
2022/04/22 17:37:13;;;;;;;13.30;10.30;;;16.10;72.30;;;;;;10200509;29;20274;-85
2022/04/22 17:42:16;;;;;;;16.83;13.30;;;15.90;73.80;;;;;;10183311;29;20243;-85
2022/04/22 17:47:19;;;;;;;17.17;13.10;;;16.50;70.70;;;;;;10199576;29;20306;-86
2022/04/22 17:52:24;;;;;;;19.47;13.67;;;16.10;72.90;;;;;;10189573;29;20376;-85
2022/04/22 17:57:27;;;;;;;16.00;13.30;;;16.40;75.10;;;;;;10200342;29;20290;-85
2022/04/22 18:02:29;;;;;;;15.60;13.30;;;16.60;70.80;;;;;;10197732;29;20300;-85
2022/04/22 18:07:32;;;;;;;14.57;12.70;;;17.20;73.60;;;;;;10204333;29;20285;-85
2022/04/22 18:12:34;;;;;;;14.17;12.67;;;16.90;67.90;;;;;;10229265;29;20690;-85
2022/04/22 18:17:37;;;;;;;15.57;13.03;;;;;;;;;;10244911;29;20242;-85
2022/04/22 18:22:39;;;;;;;17.50;13.93;;;15.60;74.30;;;;;;10244497;29;20754;-86
2022/04/22 18:27:42;;;;;;;19.73;11.30;;;15.90;71.00;;;;;;10229308;29;20306;-85
2022/04/22 18:32:45;;;;;;;17.97;13.57;;;14.50;73.10;;;;;;10244466;29;20302;-85
2022/04/22 18:37:49;;;;;;;11.03;9.87;;;14.90;73.40;;;;;;10236170;28;20288;-85
2022/04/22 18:42:52;;;;;;;13.23;10.43;;;;;;;;;;10266499;28;20238;-85
2022/04/22 18:47:58;;;;;;;17.83;13.73;;;11.40;72.90;;;;;;10249264;28;20253;-85
2022/04/22 18:53:01;;;;;;;21.73;15.33;;;11.10;74.10;;;;;;10267601;28;20275;-85
2022/04/22 18:58:04;;;;;;;12.77;11.00;;;9.30;81.90;;;;;;10252043;28;20710;-85
2022/04/22 19:03:12;;;;;;;13.67;11.20;;;8.50;87.60;;;;;;10257537;28;20302;-85
2022/04/22 19:08:16;;;;;;;16.57;12.67;;;8.20;90.30;;;;;;10267018;28;20256;-84
2022/04/22 19:13:21;;;;;;;16.90;12.80;;;7.70;92.30;;;;;;10256094;28;20222;-85
2022/04/22 19:18:24;;;;;;;13.87;11.47;;;7.20;94.50;;;;;;10238289;28;20297;-86
2022/04/22 19:23:28;;;;;;;16.90;11.57;;;7.10;95.40;;;;;;10290766;28;20288;-84
2022/04/22 19:28:31;;;;;;;13.93;10.90;;;6.70;97.80;;;;;;10290227;28;20261;-85
2022/04/22 19:33:33;;;;;;;16.40;12.20;;;6.20;99.90;;;;;;10273209;28;20245;-84
2022/04/22 19:43:58;;;;;;;14.83;11.87;;;;;;;;;;10252218;29;20241;-86
2022/04/22 19:49:01;;;;;;;15.00;11.73;;;5.60;99.90;;;;;;10219072;29;20294;-85
2022/04/22 19:54:05;;;;;;;20.60;14.90;;;5.60;99.90;;;;;;10210233;29;20296;-85
2022/04/22 19:59:07;;;;;;;21.97;16.23;;;6.00;99.90;;;;;;10207330;29;20697;-85
2022/04/22 20:04:10;;;;;;;20.47;16.00;;;6.00;99.90;;;;;;10242318;29;20301;-84
2022/04/22 20:09:12;;;;;;;21.07;15.57;;;5.80;99.90;;;;;;10230556;28;20312;-84
2022/04/22 20:14:18;;;;;;;22.27;14.87;;;6.00;99.90;;;;;;10213825;29;20241;-85
2022/04/22 20:19:23;;;;;;;19.57;14.67;;;6.40;99.90;;;;;;10248399;29;20246;-84
2022/04/22 20:24:26;;;;;;;24.40;17.93;;;6.20;99.90;;;;;;10219321;29;20238;-84
2022/04/22 20:29:28;;;;;;;29.37;18.07;;;6.00;99.90;;;;;;10222759;29;20266;-84
2022/04/22 20:45:33;;;;;;;33.20;21.33;;;5.20;99.90;;;;;;10072016;29;20248;-85
2022/04/22 20:50:35;;;;;;;29.40;19.83;;;4.80;99.90;;;;;;10071349;29;20674;-85
2022/04/22 20:55:38;;;;;;;29.03;20.33;;;;;;;;;;10073359;29;20244;-85
2022/04/22 21:00:41;;;;;;;31.10;21.00;;;4.30;99.90;;;;;;10087279;29;20240;-85
2022/04/22 21:05:43;;;;;;;33.20;20.77;;;3.90;99.90;;;;;;10073292;29;20859;-85
2022/04/22 21:10:46;;;;;;;29.73;19.83;;;3.90;99.90;;;;;;10173247;29;20262;-85
2022/04/22 21:15:49;;;;;;;31.60;20.07;;;3.60;99.90;;;;;;10197001;29;20592;-84
2022/04/22 21:20:51;;;;;;;29.70;20.23;;;3.70;99.90;;;;;;10233869;28;20636;-85
2022/04/22 21:25:54;;;;;;;30.77;19.43;;;3.50;99.90;;;;;;10253815;29;20581;-84
2022/04/22 21:30:56;;;;;;;32.80;18.33;;;3.50;99.90;;;;;;10231562;29;20242;-84
2022/04/22 21:35:59;;;;;;;29.50;19.07;;;3.30;99.90;;;;;;10220344;29;20308;-84
2022/04/22 21:41:02;;;;;;;31.17;19.37;;;3.10;99.90;;;;;;10242065;29;20279;-83
2022/04/22 21:46:04;;;;;;;41.60;21.60;;;3.10;99.90;;;;;;10197697;29;20643;-83
2022/04/22 21:51:07;;;;;;;27.00;18.43;;;3.00;99.90;;;;;;10259878;28;20206;-84
2022/04/22 21:56:09;;;;;;;28.80;18.37;;;2.80;99.90;;;;;;10278618;29;20204;-84
2022/04/22 22:01:12;;;;;;;28.70;17.93;;;2.80;99.90;;;;;;10296775;29;20238;-84
2022/04/22 22:06:15;;;;;;;28.97;17.83;;;;;;;;;;10259226;29;20230;-85
2022/04/22 22:11:17;;;;;;;27.10;17.10;;;2.60;99.90;;;;;;10258712;29;20267;-84
2022/04/22 22:16:20;;;;;;;25.63;16.53;;;2.80;99.90;;;;;;10284489;29;20194;-84
2022/04/22 22:21:22;;;;;;;26.80;16.97;;;2.60;99.90;;;;;;10301906;28;20238;-84
2022/04/22 22:26:25;;;;;;;24.57;16.47;;;2.60;99.90;;;;;;10301901;28;20214;-85
2022/04/22 22:31:27;;;;;;;23.33;15.90;;;2.70;99.90;;;;;;10302078;28;20183;-84
2022/04/22 22:36:30;;;;;;;29.00;16.33;;;2.70;99.90;;;;;;10301614;28;20194;-84
2022/04/22 22:41:33;;;;;;;29.20;18.10;;;2.50;99.90;;;;;;10338354;28;20218;-84
2022/04/22 22:46:36;;;;;;;29.60;18.90;;;2.30;99.90;;;;;;10331147;28;20217;-84
2022/04/22 22:51:38;;;;;;;43.00;22.53;;;2.20;99.90;;;;;;10325620;28;20209;-84
2022/04/22 22:56:41;;;;;;;34.90;20.13;;;2.30;99.90;;;;;;10341370;28;20190;-84
2022/04/22 23:01:43;;;;;;;33.50;20.50;;;2.20;99.90;;;;;;10341269;28;20197;-84
2022/04/22 23:06:46;;;;;;;41.57;21.47;;;2.10;99.90;;;;;;10324504;28;20269;-84
2022/04/22 23:11:48;;;;;;;34.53;21.70;;;2.30;99.90;;;;;;10341894;28;20209;-85
2022/04/22 23:16:51;;;;;;;41.00;22.40;;;2.30;99.90;;;;;;10341117;28;20222;-84
2022/04/22 23:21:53;;;;;;;29.30;20.37;;;2.40;99.90;;;;;;10311130;28;20249;-84
2022/04/22 23:26:56;;;;;;;32.03;20.77;;;2.40;99.90;;;;;;10244047;28;20261;-84
2022/04/22 23:31:59;;;;;;;33.90;21.53;;;2.40;99.90;;;;;;10293424;28;20631;-84
2022/04/22 23:37:03;;;;;;;35.13;19.43;;;2.20;99.90;;;;;;10290946;28;20214;-83
2022/04/22 23:42:07;;;;;;;34.67;20.07;;;1.90;99.90;;;;;;10274771;28;20257;-84
2022/04/22 23:47:10;;;;;;;33.33;20.10;;;1.80;99.90;;;;;;10278771;28;20233;-84
2022/04/22 23:52:14;;;;;;;34.43;20.83;;;1.80;99.90;;;;;;10298923;28;20202;-84
2022/04/22 23:57:16;;;;;;;37.70;22.10;;;1.70;99.90;;;;;;10297223;28;20598;-84
